Time;durP1;ratioP1;P1;durP2;ratioP2;P2;SDS_P1;SDS_P2;PMS_P1;PMS_P2;Temp;Humidity;BMP_temperature;BMP_pressure;BME280_temperature;BME280_humidity;BME280_pressure;Samples;Min_cycle;Max_cycle;Signal;HPM_P1;HPM_P2
2022/07/22 00:00:28;;;;;;;22.17;13.30;;;;;;;16.58;100.00;96682.56;5073012;28;20464;-72
2022/07/22 00:02:55;;;;;;;23.93;11.07;;;;;;;16.81;100.00;96699.34;5065440;28;20432;-73
2022/07/22 00:05:22;;;;;;;23.00;12.60;;;;;;;16.79;100.00;96706.94;5093048;28;20488;-73
2022/07/22 00:07:49;;;;;;;28.40;12.40;;;;;;;16.98;100.00;96714.13;5092792;28;20934;-73
2022/07/22 00:10:15;;;;;;;18.43;11.63;;;;;;;16.76;100.00;96705.78;5075807;28;20498;-73
2022/07/22 00:12:42;;;;;;;28.57;13.10;;;;;;;16.61;100.00;96695.94;5092782;28;20436;-72
2022/07/22 00:15:09;;;;;;;25.67;12.53;;;;;;;16.46;100.00;96684.25;5092729;28;20814;-72
2022/07/22 00:17:36;;;;;;;25.93;15.00;;;;;;;16.60;100.00;96699.75;5092615;28;20419;-73
2022/07/22 00:20:05;;;;;;;22.50;12.20;;;;;;;16.51;100.00;96688.53;5075686;28;20474;-73
2022/07/22 00:22:32;;;;;;;25.87;13.73;;;;;;;16.64;100.00;96713.94;5075607;28;20489;-73
2022/07/22 00:24:59;;;;;;;33.97;13.20;;;;;;;16.45;100.00;96692.63;5092559;28;20471;-72
2022/07/22 00:27:26;;;;;;;27.40;12.70;;;;;;;16.55;100.00;96714.16;5089464;28;20792;-72
2022/07/22 00:29:53;;;;;;;26.27;11.77;;;;;;;16.67;100.00;96715.91;5072258;28;20468;-72
2022/07/22 00:32:20;;;;;;;20.27;12.23;;;;;;;16.46;100.00;96702.19;5076866;28;20480;-73
2022/07/22 00:34:47;;;;;;;25.30;12.13;;;;;;;16.26;100.00;96694.19;5075413;28;20438;-73
2022/07/22 00:37:14;;;;;;;19.37;11.67;;;;;;;16.32;100.00;96708.03;5075229;28;20442;-73
2022/07/22 00:39:41;;;;;;;15.90;10.80;;;;;;;15.95;100.00;96657.81;5081267;28;20440;-73
2022/07/22 00:42:07;;;;;;;26.80;11.30;;;;;;;16.09;100.00;96691.19;5073110;28;20433;-73
2022/07/22 00:44:34;;;;;;;19.93;11.23;;;;;;;15.83;100.00;96683.84;5071664;28;20460;-73
2022/07/22 00:47:05;;;;;;;24.50;12.40;;;;;;;15.81;100.00;96694.09;5071985;28;20940;-72
2022/07/22 00:49:32;;;;;;;18.57;12.60;;;;;;;16.09;100.00;96693.88;5073230;28;20456;-73
2022/07/22 00:51:59;;;;;;;17.60;12.07;;;;;;;15.87;100.00;96693.44;5072077;28;20480;-73
2022/07/22 00:54:26;;;;;;;22.87;12.77;;;;;;;15.55;100.00;96628.03;5068368;28;20445;-73
2022/07/22 00:56:55;;;;;;;26.00;13.53;;;;;;;16.02;100.00;96683.06;5081309;28;20424;-73
2022/07/22 00:59:22;;;;;;;22.33;12.20;;;;;;;15.90;100.00;96676.00;5078727;28;20447;-73
2022/07/22 01:01:48;;;;;;;27.57;13.97;;;;;;;15.85;100.00;96689.59;5071109;28;20437;-73
2022/07/22 01:04:16;;;;;;;28.80;12.60;;;;;;;15.52;100.00;96663.38;5070191;28;20463;-73
2022/07/22 01:06:45;;;;;;;25.60;13.73;;;;;;;15.56;100.00;96690.88;5071189;28;20764;-73
2022/07/22 01:09:13;;;;;;;26.17;12.73;;;;;;;15.07;100.00;96684.09;5070841;28;20501;-73
2022/07/22 01:11:40;;;;;;;30.93;13.00;;;;;;;15.06;100.00;96684.47;5070980;28;20475;-73
2022/07/22 01:14:08;;;;;;;32.77;14.63;;;;;;;14.92;100.00;96684.13;5070778;28;20695;-73
2022/07/22 01:16:36;;;;;;;38.33;12.67;;;;;;;15.04;100.00;96658.19;5087696;28;20433;-73
2022/07/22 01:19:03;;;;;;;31.27;14.53;;;;;;;15.42;100.00;96680.69;5072054;28;20906;-73
2022/07/22 01:21:30;;;;;;;41.30;14.60;;;;;;;15.41;100.00;96670.38;5087748;28;20882;-73
2022/07/22 01:23:58;;;;;;;28.13;12.57;;;;;;;15.63;100.00;96667.09;5072745;28;20538;-72
2022/07/22 01:26:24;;;;;;;21.53;11.47;;;;;;;15.78;100.00;96679.56;5081522;28;20436;-72
2022/07/22 01:28:51;;;;;;;31.67;13.37;;;;;;;15.77;100.00;96686.03;5080893;28;21750;-72
2022/07/22 01:31:19;;;;;;;28.13;13.63;;;;;;;15.46;100.00;96662.09;5078594;28;20443;-72
2022/07/22 01:33:46;;;;;;;24.40;11.57;;;;;;;15.44;100.00;96685.66;5077531;28;20444;-73
2022/07/22 01:36:12;;;;;;;26.17;13.50;;;;;;;14.33;100.00;96669.00;5087464;28;20494;-72
2022/07/22 01:38:39;;;;;;;25.10;11.90;;;;;;;14.46;100.00;96646.53;5070487;28;20458;-73
2022/07/22 01:41:06;;;;;;;31.57;13.60;;;;;;;15.08;100.00;96684.88;5054284;28;20429;-73
2022/07/22 01:43:33;;;;;;;26.23;12.70;;;;;;;14.96;100.00;96651.16;5059846;28;20448;-73
2022/07/22 01:46:00;;;;;;;27.33;13.90;;;;;;;15.16;100.00;96643.97;5090816;28;20485;-73
2022/07/22 01:48:28;;;;;;;27.40;13.63;;;;;;;14.93;100.00;96611.88;5072874;28;20465;-73
2022/07/22 01:50:55;;;;;;;17.63;12.07;;;;;;;15.07;100.00;96646.81;5070354;28;20464;-73
2022/07/22 01:53:22;;;;;;;37.73;13.23;;;;;;;15.19;100.00;96656.59;5072477;28;20439;-73
2022/07/22 01:55:49;;;;;;;23.30;12.13;;;;;;;15.32;100.00;96659.91;5074041;28;20456;-72
2022/07/22 01:58:17;;;;;;;26.50;11.90;;;;;;;15.36;100.00;96650.91;5073781;28;20459;-72
2022/07/22 02:00:45;;;;;;;27.37;12.10;;;;;;;15.21;100.00;96653.56;5090416;28;20432;-72
2022/07/22 02:03:12;;;;;;;30.73;13.67;;;;;;;15.14;100.00;96642.78;5073645;28;20446;-72
2022/07/22 02:05:39;;;;;;;21.27;11.30;;;;;;;14.91;100.00;96653.28;5073604;28;20456;-73
2022/07/22 02:08:17;;;;;;;24.00;12.70;;;;;;;13.99;100.00;96567.47;5090307;28;20532;-73
2022/07/22 02:11:04;;;;;;;27.27;13.10;;;;;;;14.73;100.00;96680.28;5059965;28;20479;-73
2022/07/22 02:13:31;;;;;;;18.77;11.50;;;;;;;14.25;100.00;96640.66;5089959;28;21271;-73
2022/07/22 02:15:58;;;;;;;25.73;13.70;;;;;;;14.61;100.00;96655.66;5073446;28;21137;-73
2022/07/22 02:18:25;;;;;;;25.03;12.63;;;;;;;14.86;100.00;96662.34;5073508;28;20455;-73
2022/07/22 02:20:52;;;;;;;27.80;12.73;;;;;;;15.11;100.00;96672.78;5073422;28;20420;-72
2022/07/22 02:23:19;;;;;;;19.40;12.63;;;;;;;14.74;100.00;96673.06;5073858;28;20845;-73
2022/07/22 02:25:45;;;;;;;18.03;15.30;;;;;;;14.40;100.00;96656.63;5073352;28;20949;-72
2022/07/22 02:28:12;;;;;;;19.33;15.07;;;;;;;14.62;100.00;96660.63;5090082;28;20455;-72
2022/07/22 02:30:39;;;;;;;23.60;13.73;;;;;;;14.48;100.00;96661.03;5068278;28;20980;-73
2022/07/22 02:33:06;;;;;;;17.13;15.33;;;;;;;14.90;100.00;96675.72;5053360;28;20444;-73
2022/07/22 02:35:34;;;;;;;17.53;15.83;;;;;;;14.65;100.00;96656.50;5069930;28;20437;-73
2022/07/22 02:38:03;;;;;;;24.37;15.23;;;;;;;14.43;100.00;96657.84;5069952;28;20475;-73
2022/07/22 02:40:31;;;;;;;17.20;15.03;;;;;;;14.91;100.00;96679.94;5080743;28;20834;-73
2022/07/22 02:42:57;;;;;;;16.90;14.87;;;;;;;14.47;100.00;96640.88;5075414;28;20928;-73
2022/07/22 02:45:24;;;;;;;20.43;15.77;;;;;;;14.86;100.00;96680.19;5089883;28;20440;-73
2022/07/22 02:47:54;;;;;;;22.00;12.40;;;;;;;14.44;100.00;96688.69;5077252;28;20506;-72
2022/07/22 02:50:24;;;;;;;18.73;12.03;;;;;;;14.39;100.00;96665.72;5069778;28;20475;-73
2022/07/22 02:52:51;;;;;;;17.20;11.93;;;;;;;14.41;100.00;96644.09;5049906;28;21040;-72
2022/07/22 02:55:23;;;;;;;26.53;13.20;;;;;;;14.48;100.00;96681.56;5057470;28;20432;-72
2022/07/22 02:57:51;;;;;;;19.40;11.70;;;;;;;14.32;100.00;96673.53;5075563;28;20440;-72
2022/07/22 03:00:18;;;;;;;22.87;11.97;;;;;;;13.98;100.00;96674.16;5086734;28;20431;-73
2022/07/22 03:02:47;;;;;;;18.63;11.00;;;;;;;14.01;100.00;96674.22;5098195;28;20481;-72
2022/07/22 03:05:14;;;;;;;23.10;12.00;;;;;;;14.24;100.00;96658.50;5066422;28;20436;-72
2022/07/22 03:07:48;;;;;;;15.23;10.97;;;;;;;14.47;100.00;96678.13;5069573;28;20742;-73
2022/07/22 03:10:15;;;;;;;18.90;10.90;;;;;;;14.46;100.00;96662.50;5069560;28;20469;-73
2022/07/22 03:12:42;;;;;;;23.83;11.93;;;;;;;14.52;100.00;96671.78;5074095;28;20486;-72
2022/07/22 03:15:09;;;;;;;15.57;11.13;;;;;;;14.59;100.00;96663.19;5089467;28;20459;-73
2022/07/22 03:17:37;;;;;;;20.73;11.63;;;;;;;14.63;100.00;96675.47;5073062;28;20439;-73
2022/07/22 03:20:07;;;;;;;20.00;11.33;;;;;;;14.65;100.00;96683.09;5073292;28;20439;-72
2022/07/22 03:22:34;;;;;;;19.93;11.53;;;;;;;14.30;100.00;96677.66;5089588;28;20520;-72
2022/07/22 03:25:02;;;;;;;26.13;12.50;;;;;;;13.76;100.00;96647.00;5089589;28;20439;-72
2022/07/22 03:27:29;;;;;;;13.70;10.80;;;;;;;13.71;100.00;96675.69;5093884;28;20423;-72
2022/07/22 03:29:56;;;;;;;18.30;10.90;;;;;;;13.50;100.00;96636.03;5093193;28;20902;-72
2022/07/22 03:32:23;;;;;;;22.27;13.03;;;;;;;14.07;100.00;96664.13;5092989;28;20431;-72
2022/07/22 03:34:50;;;;;;;19.77;13.90;;;;;;;14.17;100.00;96679.59;5076369;28;20504;-72
2022/07/22 03:37:17;;;;;;;15.97;12.17;;;;;;;13.99;100.00;96657.84;5093066;28;20443;-72
2022/07/22 03:39:44;;;;;;;16.10;12.07;;;;;;;13.89;100.00;96656.47;5093143;28;20466;-72
2022/07/22 03:42:11;;;;;;;15.63;11.77;;;;;;;13.55;100.00;96611.88;5094394;28;20506;-72
2022/07/22 03:44:46;;;;;;;14.47;13.17;;;;;;;14.11;100.00;96663.09;5077462;28;20900;-72
2022/07/22 03:47:22;;;;;;;13.10;11.90;;;;;;;14.28;100.00;96690.50;5068661;28;21098;-72
2022/07/22 03:49:49;;;;;;;14.03;12.73;;;;;;;14.12;100.00;96656.69;5058965;28;21099;-72
2022/07/22 03:52:23;;;;;;;15.30;13.70;;;;;;;14.38;100.00;96680.13;5072556;28;20944;-72
2022/07/22 03:54:49;;;;;;;14.93;13.43;;;;;;;14.23;100.00;96667.59;5058593;28;20492;-72
2022/07/22 03:57:16;;;;;;;21.80;17.37;;;;;;;14.14;100.00;96693.56;5092515;28;20479;-72
2022/07/22 03:59:43;;;;;;;17.00;15.20;;;;;;;13.88;100.00;96670.84;5092514;28;20524;-72
2022/07/22 04:02:10;;;;;;;14.37;12.87;;;;;;;13.97;100.00;96694.63;5076104;28;20463;-72
2022/07/22 04:04:38;;;;;;;14.97;13.53;;;;;;;13.84;100.00;96687.81;5092585;28;20435;-72
2022/07/22 04:07:04;;;;;;;15.70;13.87;;;;;;;13.59;100.00;96666.63;5092493;28;20446;-72
2022/07/22 04:09:35;;;;;;;15.60;14.10;;;;;;;13.51;100.00;96659.59;5092193;28;20517;-72
2022/07/22 04:12:02;;;;;;;17.03;14.10;;;;;;;13.51;100.00;96648.19;5092208;28;20454;-73
2022/07/22 04:14:33;;;;;;;17.30;14.50;;;;;;;13.69;100.00;96654.00;5092242;28;20452;-72
2022/07/22 04:16:59;;;;;;;14.57;13.17;;;;;;;13.94;100.00;96683.91;5075429;28;20440;-72
2022/07/22 04:19:27;;;;;;;15.57;14.30;;;;;;;14.12;100.00;96667.31;5092404;28;20499;-72
2022/07/22 04:21:58;;;;;;;16.23;13.63;;;;;;;14.70;100.00;96691.63;5092203;28;20518;-72
2022/07/22 04:24:27;;;;;;;14.00;12.60;;;;;;;14.32;100.00;96644.28;5075933;28;20471;-73
2022/07/22 04:26:55;;;;;;;13.60;12.37;;;;;;;14.35;100.00;96648.13;5092152;28;20459;-72
2022/07/22 04:29:23;;;;;;;15.53;14.03;;;;;;;14.51;100.00;96688.84;5092183;28;20884;-73
2022/07/22 04:31:49;;;;;;;14.13;12.73;;;;;;;14.70;100.00;96666.91;5075268;28;20471;-72
2022/07/22 04:34:18;;;;;;;15.10;13.70;;;;;;;14.76;100.00;96687.56;5092228;28;20440;-72
2022/07/22 04:36:47;;;;;;;16.30;13.50;;;;;;;14.75;100.00;96659.41;5061237;28;20436;-73
2022/07/22 04:39:13;;;;;;;14.53;13.10;;;;;;;15.04;100.00;96665.38;5071613;28;20452;-73
2022/07/22 04:41:46;;;;;;;16.53;15.00;;;;;;;15.22;100.00;96687.09;5056088;28;20510;-72
2022/07/22 04:44:16;;;;;;;15.40;13.90;;;;;;;15.10;100.00;96660.59;5071488;28;20941;-72
2022/07/22 04:46:42;;;;;;;15.60;14.20;;;;;;;15.30;100.00;96692.25;5087484;28;20883;-73
2022/07/22 04:49:09;;;;;;;15.17;13.57;;;;;;;15.21;100.00;96659.69;5071628;28;20465;-72
2022/07/22 04:51:36;;;;;;;14.80;13.40;;;;;;;15.54;100.00;96687.78;5051262;28;20465;-72
2022/07/22 04:54:08;;;;;;;14.63;12.90;;;;;;;15.61;100.00;96693.28;5073201;28;20446;-72
2022/07/22 04:56:39;;;;;;;13.57;10.73;;;;;;;15.71;100.00;96690.09;5075183;28;20443;-72
2022/07/22 04:59:06;;;;;;;15.27;12.83;;;;;;;15.78;100.00;96694.78;5091242;28;20455;-72
2022/07/22 05:01:34;;;;;;;14.20;11.50;;;;;;;15.65;100.00;96675.50;5091346;28;20927;-73
2022/07/22 05:04:01;;;;;;;17.80;11.90;;;;;;;15.91;100.00;96678.31;5074706;28;21067;-73
2022/07/22 05:06:28;;;;;;;13.73;12.30;;;;;;;16.20;100.00;96674.28;5074658;28;20434;-73
2022/07/22 05:08:55;;;;;;;16.60;11.67;;;;;;;16.20;100.00;96650.25;5090371;28;20513;-73
2022/07/22 05:11:23;;;;;;;18.93;15.47;;;;;;;16.35;100.00;96664.63;5050746;28;20475;-73
2022/07/22 05:13:49;;;;;;;18.20;13.87;;;;;;;16.41;100.00;96676.53;5064246;28;20449;-73
2022/07/22 05:16:16;;;;;;;20.90;15.77;;;;;;;16.50;100.00;96695.00;5087658;28;20455;-73
2022/07/22 05:18:43;;;;;;;16.97;15.27;;;;;;;16.69;100.00;96702.19;5070599;28;20480;-72
2022/07/22 05:21:14;;;;;;;13.97;12.63;;;;;;;16.66;100.00;96679.63;5064294;28;20965;-72
2022/07/22 05:23:41;;;;;;;16.40;14.53;;;;;;;16.74;100.00;96667.19;5065465;28;20436;-72
2022/07/22 05:26:09;;;;;;;15.43;13.37;;;;;;;17.07;100.00;96702.06;5090932;28;20947;-72
2022/07/22 05:28:36;;;;;;;16.30;14.90;;;;;;;16.89;100.00;96695.69;5089883;28;20463;-73
2022/07/22 05:31:02;;;;;;;18.50;14.00;;;;;;;16.93;100.00;96701.84;5062777;28;20473;-73
2022/07/22 05:33:31;;;;;;;17.43;15.10;;;;;;;16.94;100.00;96668.66;5068285;28;20464;-73
2022/07/22 05:36:23;;;;;;;16.00;14.50;;;;;;;16.95;100.00;96694.22;5099492;28;20442;-73
2022/07/22 05:38:51;;;;;;;18.40;14.47;;;;;;;17.00;100.00;96691.28;5035653;28;20512;-73
2022/07/22 05:41:17;;;;;;;17.80;16.10;;;;;;;16.80;100.00;96676.44;5029052;28;20497;-73
2022/07/22 05:43:44;;;;;;;19.33;14.60;;;;;;;17.18;100.00;96683.50;5039432;28;20434;-73
2022/07/22 05:46:11;;;;;;;16.00;14.40;;;;;;;17.43;100.00;96697.22;5041284;28;21032;-74
2022/07/22 05:48:38;;;;;;;16.50;14.90;;;;;;;17.50;100.00;96683.97;5019583;28;20459;-73
2022/07/22 05:51:11;;;;;;;18.23;14.40;;;;;;;17.79;100.00;96695.81;5024199;28;20477;-73
2022/07/22 05:53:39;;;;;;;19.10;15.63;;;;;;;17.40;100.00;96665.88;5019757;28;20443;-73
2022/07/22 05:56:07;;;;;;;16.63;14.93;;;;;;;17.90;100.00;96696.72;5045188;28;21030;-73
2022/07/22 05:58:34;;;;;;;21.23;16.13;;;;;;;18.18;100.00;96698.97;5022308;28;20478;-73
2022/07/22 06:01:01;;;;;;;16.07;14.67;;;;;;;18.27;100.00;96675.31;5007145;28;20422;-73
2022/07/22 06:03:28;;;;;;;17.40;14.37;;;;;;;18.33;100.00;96678.47;5039991;28;20525;-73
2022/07/22 06:05:55;;;;;;;15.00;13.50;;;;;;;18.89;100.00;96677.44;5037478;28;20457;-73
2022/07/22 06:08:22;;;;;;;16.10;13.90;;;;;;;19.49;100.00;96712.69;5039548;28;20549;-73
2022/07/22 06:10:50;;;;;;;18.27;14.50;;;;;;;19.78;100.00;96719.03;5022859;28;20481;-73
2022/07/22 06:13:18;;;;;;;15.13;13.70;;;;;;;19.74;100.00;96712.84;5022835;28;20442;-73
2022/07/22 06:15:44;;;;;;;19.90;15.20;;;;;;;19.81;100.00;96687.97;5038165;28;20461;-73
2022/07/22 06:18:12;;;;;;;16.20;14.70;;;;;;;20.09;100.00;96690.00;5087194;28;20463;-73
2022/07/22 06:20:38;;;;;;;14.80;13.40;;;;;;;20.13;100.00;96704.19;5083393;28;20443;-73
2022/07/22 06:23:05;;;;;;;14.33;12.93;;;;;;;20.60;100.00;96718.53;5089212;28;20904;-73
2022/07/22 06:25:34;;;;;;;14.30;12.83;;;;;;;20.83;100.00;96715.47;5084173;28;20438;-73
2022/07/22 06:28:29;;;;;;;14.87;13.37;;;;;;;20.89;100.00;96706.66;5101222;28;20463;-73
2022/07/22 06:30:56;;;;;;;15.40;13.90;;;;;;;20.65;100.00;96699.34;5065927;28;20472;-73
2022/07/22 06:33:24;;;;;;;15.07;13.70;;;;;;;20.40;100.00;96693.13;5076736;28;20431;-74
2022/07/22 06:35:51;;;;;;;13.60;12.20;;;;;;;20.87;100.00;96697.44;5073438;28;20793;-73
2022/07/22 06:38:18;;;;;;;14.57;13.27;;;;;;;20.75;100.00;96714.72;5078683;28;20456;-74
2022/07/22 06:41:19;;;;;;;14.77;13.37;;;;;;;21.38;100.00;96707.81;5093471;28;20414;-74
2022/07/22 06:44:12;;;;;;;13.50;11.63;;;;;;;21.68;100.00;96704.66;5079526;28;20432;-73
2022/07/22 06:47:08;;;;;;;12.43;11.40;;;;;;;21.97;100.00;96716.09;5080953;28;20512;-73
2022/07/22 06:49:37;;;;;;;14.33;12.80;;;;;;;21.69;100.00;96725.03;5064232;28;20480;-73
2022/07/22 06:52:04;;;;;;;12.73;11.60;;;;;;;21.70;100.00;96728.50;5080595;28;20472;-73
2022/07/22 06:54:31;;;;;;;11.90;10.83;;;;;;;22.30;97.87;96727.50;5078863;28;20460;-73
2022/07/22 06:57:00;;;;;;;12.10;11.20;;;;;;;22.51;95.91;96722.00;5080913;28;21051;-73
2022/07/22 06:59:31;;;;;;;11.93;10.93;;;;;;;22.59;95.45;96706.56;5066681;28;20543;-73
2022/07/22 07:01:59;;;;;;;12.70;11.30;;;;;;;22.81;93.02;96721.44;5071592;28;20443;-73
2022/07/22 07:04:25;;;;;;;11.00;10.00;;;;;;;23.01;92.35;96729.78;5089087;28;20424;-73
2022/07/22 07:06:52;;;;;;;12.07;10.97;;;;;;;22.97;89.62;96678.59;5092311;28;20435;-73
2022/07/22 07:09:36;;;;;;;13.23;12.23;;;;;;;22.95;90.74;96734.84;5081473;28;20839;-73
2022/07/22 07:12:16;;;;;;;12.70;11.57;;;;;;;22.96;90.90;96727.50;5093749;28;20844;-73
2022/07/22 07:15:12;;;;;;;11.87;10.87;;;;;;;22.92;89.83;96724.06;5090761;28;20448;-73
2022/07/22 07:17:53;;;;;;;12.43;11.23;;;;;;;23.20;88.36;96723.84;5088335;28;20465;-73
2022/07/22 07:20:20;;;;;;;13.60;10.93;;;;;;;23.10;87.69;96705.03;5088663;28;20440;-73
2022/07/22 07:22:47;;;;;;;11.60;10.50;;;;;;;23.50;87.47;96698.09;5081184;28;20448;-74
2022/07/22 07:25:14;;;;;;;13.03;11.93;;;;;;;22.89;88.46;96725.66;5094677;28;20439;-73
2022/07/22 07:27:51;;;;;;;12.70;11.57;;;;;;;22.56;91.92;96716.19;5071111;28;20984;-73
2022/07/22 07:30:24;;;;;;;12.10;10.83;;;;;;;22.89;91.11;96727.56;5086129;28;20517;-73
2022/07/22 07:32:52;;;;;;;12.83;11.70;;;;;;;22.83;89.60;96710.25;5082124;28;20452;-74
2022/07/22 07:35:19;;;;;;;15.17;11.70;;;;;;;23.57;87.17;96709.63;5066171;28;20486;-73
2022/07/22 07:37:46;;;;;;;10.93;10.13;;;;;;;24.24;84.31;96730.88;5081237;28;20424;-72
2022/07/22 07:40:14;;;;;;;10.10;9.33;;;;;;;24.17;82.93;96726.31;5081260;28;20444;-72
2022/07/22 07:42:41;;;;;;;15.00;11.10;;;;;;;24.72;81.07;96726.00;5061163;28;20438;-72
2022/07/22 07:45:14;;;;;;;12.10;11.10;;;;;;;24.14;82.20;96681.94;5089837;28;20555;-72
2022/07/22 07:47:41;;;;;;;12.27;10.67;;;;;;;23.78;84.25;96695.16;5085805;28;20450;-72
2022/07/22 07:50:08;;;;;;;12.47;11.17;;;;;;;24.14;82.80;96703.56;5089213;28;20448;-73
2022/07/22 07:52:40;;;;;;;12.13;11.03;;;;;;;24.43;81.30;96714.78;5062612;28;20843;-73
2022/07/22 07:55:18;;;;;;;16.00;10.30;;;;;;;24.46;79.74;96705.13;5077060;28;20480;-73
2022/07/22 07:57:48;;;;;;;10.07;9.20;;;;;;;24.56;79.85;96712.28;5073122;28;20820;-73
2022/07/22 08:00:21;;;;;;;12.20;11.20;;;;;;;24.63;79.42;96709.50;5072559;28;20451;-73
2022/07/22 08:02:49;;;;;;;12.33;10.60;;;;;;;24.63;79.42;96701.38;5086290;28;20443;-73
2022/07/22 08:05:18;;;;;;;9.97;9.13;;;;;;;25.21;77.73;96703.97;5072688;28;20774;-73
2022/07/22 08:07:49;;;;;;;13.50;10.50;;;;;;;25.43;76.38;96704.38;5087390;28;20430;-72
2022/07/22 08:10:17;;;;;;;11.60;10.50;;;;;;;24.63;77.59;96703.31;5055933;28;20429;-73
2022/07/22 08:13:22;;;;;;;13.00;11.00;;;;;;;25.28;77.11;96690.31;5073666;28;21042;-74
2022/07/22 08:16:02;;;;;;;15.07;10.60;;;;;;;25.35;75.54;96696.38;5059230;28;20458;-74
2022/07/22 08:18:31;;;;;;;12.50;11.40;;;;;;;24.64;78.07;96686.69;5076268;28;20516;-73
2022/07/22 08:20:58;;;;;;;11.60;10.60;;;;;;;25.00;76.61;96703.16;5058446;28;20800;-73
2022/07/22 08:23:38;;;;;;;10.50;9.50;;;;;;;25.37;75.43;96685.13;5072434;28;20455;-73
2022/07/22 08:26:05;;;;;;;9.60;8.80;;;;;;;25.57;75.51;96685.91;5085651;28;20444;-73
2022/07/22 08:28:32;;;;;;;11.80;9.37;;;;;;;25.59;73.91;96688.22;5072001;28;20510;-73
2022/07/22 08:30:59;;;;;;;12.00;10.27;;;;;;;25.67;72.91;96697.75;5091687;28;20464;-73
2022/07/22 08:33:31;;;;;;;10.27;9.47;;;;;;;25.46;73.12;96668.34;5091673;28;20435;-73
2022/07/22 08:35:58;;;;;;;11.10;10.00;;;;;;;26.04;72.45;96702.06;5081464;28;20501;-73
2022/07/22 08:38:25;;;;;;;10.13;9.23;;;;;;;25.86;71.91;96659.06;5065785;28;20453;-73
2022/07/22 08:40:57;;;;;;;10.73;9.90;;;;;;;26.19;70.72;96697.88;5055401;28;20479;-74
2022/07/22 08:43:35;;;;;;;10.13;9.27;;;;;;;25.85;70.78;96692.75;5060891;28;20437;-73
2022/07/22 08:46:02;;;;;;;10.43;9.47;;;;;;;25.91;71.00;96699.22;5082381;28;20436;-74
2022/07/22 08:48:39;;;;;;;12.67;8.97;;;;;;;25.38;72.54;96683.97;5077804;28;20902;-73
2022/07/22 08:51:42;;;;;;;10.27;9.47;;;;;;;25.21;73.40;96691.19;5062510;28;20557;-74
2022/07/22 08:54:28;;;;;;;10.37;9.43;;;;;;;25.81;72.44;96681.22;5071945;28;21092;-73
2022/07/22 08:56:56;;;;;;;10.67;9.67;;;;;;;24.88;73.60;96665.84;5042468;28;20855;-74
2022/07/22 08:59:23;;;;;;;11.60;10.40;;;;;;;25.89;70.96;96679.88;5085077;28;20455;-73
2022/07/22 09:02:08;;;;;;;13.33;10.70;;;;;;;26.44;69.99;96669.44;5055051;28;20429;-73
2022/07/22 09:05:03;;;;;;;10.90;9.80;;;;;;;27.13;67.57;96686.47;5071341;28;20448;-74
2022/07/22 09:07:50;;;;;;;9.53;8.63;;;;;;;26.78;67.41;96675.25;5060730;28;20440;-74
2022/07/22 09:10:40;;;;;;;11.03;8.30;;;;;;;27.11;66.59;96686.09;5079169;28;20444;-74
2022/07/22 09:13:11;;;;;;;11.10;10.20;;;;;;;26.39;67.60;96683.53;5052915;28;20523;-75
2022/07/22 09:16:00;;;;;;;9.73;8.93;;;;;;;26.05;67.75;96671.06;5078976;28;20460;-73
2022/07/22 09:18:47;;;;;;;9.60;8.73;;;;;;;26.35;66.48;96674.69;5084154;28;20500;-74
2022/07/22 09:21:47;;;;;;;10.17;9.17;;;;;;;26.98;62.73;96679.84;5061910;28;20426;-73
2022/07/22 09:24:35;;;;;;;10.63;8.30;;;;;;;27.34;60.13;96663.41;5070213;28;20561;-73
2022/07/22 09:27:28;;;;;;;8.43;7.67;;;;;;;27.26;59.49;96668.28;5084378;28;20453;-73
2022/07/22 09:30:21;;;;;;;7.37;6.73;;;;;;;27.38;59.08;96675.72;5071386;28;20416;-73
2022/07/22 09:32:58;;;;;;;8.57;7.67;;;;;;;27.33;57.96;96680.91;5055846;28;20472;-73
2022/07/22 09:35:37;;;;;;;9.00;8.30;;;;;;;26.55;57.73;96667.25;5088895;28;20470;-73
2022/07/22 09:38:06;;;;;;;7.60;7.00;;;;;;;26.62;58.29;96671.78;5090974;28;20470;-73
2022/07/22 09:40:36;;;;;;;7.80;7.10;;;;;;;26.37;57.18;96666.91;5060905;28;20448;-73
2022/07/22 09:43:12;;;;;;;8.20;7.50;;;;;;;26.47;58.81;96672.09;5077820;28;20456;-72
2022/07/22 09:46:09;;;;;;;8.40;7.60;;;;;;;27.01;57.60;96668.91;5054562;28;20433;-73
2022/07/22 09:48:59;;;;;;;7.60;7.00;;;;;;;27.49;56.84;96667.28;5068377;28;20574;-73
2022/07/22 09:51:39;;;;;;;7.27;6.60;;;;;;;27.07;57.57;96637.34;5071996;28;20479;-73
2022/07/22 09:54:11;;;;;;;8.63;7.40;;;;;;;27.61;56.43;96657.63;5059291;28;20987;-73
2022/07/22 09:56:38;;;;;;;7.93;7.33;;;;;;;27.40;56.52;96642.69;5064974;28;20445;-73
2022/07/22 09:59:05;;;;;;;9.00;8.20;;;;;;;27.25;57.42;96636.88;5072809;28;20451;-73
2022/07/22 10:01:47;;;;;;;8.73;7.33;;;;;;;27.63;55.96;96652.53;5076707;28;20439;-73
2022/07/22 10:04:14;;;;;;;7.97;7.23;;;;;;;27.78;55.47;96623.81;5060332;28;20948;-73
2022/07/22 10:06:42;;;;;;;9.00;8.17;;;;;;;28.00;55.49;96648.41;5070080;28;20573;-73
2022/07/22 10:09:17;;;;;;;11.70;8.10;;;;;;;28.34;55.63;96655.22;5070044;28;20483;-73
2022/07/22 10:11:46;;;;;;;8.57;7.97;;;;;;;28.38;54.23;96650.41;5078891;28;20456;-73
2022/07/22 10:14:18;;;;;;;8.57;7.87;;;;;;;28.59;54.64;96644.31;5087875;28;20485;-73
2022/07/22 10:16:51;;;;;;;7.60;7.00;;;;;;;28.44;53.88;96616.78;5070391;28;20497;-74
2022/07/22 10:19:18;;;;;;;8.13;7.53;;;;;;;28.79;53.45;96628.50;5070842;28;20490;-74
2022/07/22 10:21:45;;;;;;;7.80;7.20;;;;;;;28.61;52.68;96631.03;5090287;28;20432;-74
2022/07/22 10:24:23;;;;;;;8.67;7.07;;;;;;;28.58;52.36;96648.25;5086159;28;20490;-73
2022/07/22 10:27:01;;;;;;;7.70;6.97;;;;;;;27.85;51.77;96617.41;5069855;28;20814;-74
2022/07/22 10:29:39;;;;;;;7.43;6.73;;;;;;;27.57;52.19;96635.25;5062336;28;20514;-74
2022/07/22 10:32:18;;;;;;;9.13;8.33;;;;;;;27.37;53.37;96638.09;5068573;28;20880;-74
2022/07/22 10:34:57;;;;;;;8.97;8.27;;;;;;;27.55;53.39;96648.50;5079505;28;20432;-74
2022/07/22 10:37:33;;;;;;;8.47;7.63;;;;;;;27.66;52.58;96646.28;5073996;28;20440;-74
2022/07/22 10:40:19;;;;;;;9.50;8.50;;;;;;;27.83;53.09;96644.25;5074488;28;20464;-74
2022/07/22 10:43:03;;;;;;;8.23;7.63;;;;;;;28.03;52.60;96633.19;5095657;28;20880;-74
2022/07/22 10:45:32;;;;;;;9.43;7.47;;;;;;;28.24;52.60;96632.56;5077379;28;20435;-74
2022/07/22 10:48:06;;;;;;;8.50;7.80;;;;;;;28.73;52.36;96630.25;5093701;28;20466;-74
2022/07/22 10:50:39;;;;;;;8.43;7.73;;;;;;;29.12;51.79;96644.56;5073994;28;20432;-74
2022/07/22 10:53:12;;;;;;;8.20;7.47;;;;;;;29.27;50.41;96640.16;5076146;28;20858;-74
2022/07/22 10:55:59;;;;;;;8.90;8.13;;;;;;;29.42;50.03;96638.44;5093999;28;21008;-74
2022/07/22 10:58:34;;;;;;;9.60;8.30;;;;;;;29.78;50.23;96629.00;5080061;28;20459;-74
2022/07/22 11:01:07;;;;;;;8.00;7.50;;;;;;;29.51;49.70;96599.59;5094676;28;20829;-74
2022/07/22 11:03:37;;;;;;;8.20;7.50;;;;;;;29.96;50.66;96625.63;5082270;28;20782;-74
2022/07/22 11:06:20;;;;;;;9.37;8.37;;;;;;;28.67;50.31;96620.34;5070660;28;20508;-74
2022/07/22 11:08:53;;;;;;;8.97;8.13;;;;;;;28.00;51.63;96612.31;5083156;28;20460;-74
2022/07/22 11:11:39;;;;;;;11.80;9.07;;;;;;;28.70;50.94;96614.03;5079089;28;20783;-73
2022/07/22 11:14:13;;;;;;;7.97;7.33;;;;;;;28.83;49.73;96614.75;5080519;28;20424;-74
2022/07/22 11:16:40;;;;;;;7.83;7.03;;;;;;;28.53;48.89;96586.19;5057909;28;20463;-74
2022/07/22 11:19:08;;;;;;;9.13;8.10;;;;;;;29.06;48.51;96611.66;5091763;28;20435;-74
2022/07/22 11:21:35;;;;;;;9.13;8.33;;;;;;;29.70;48.76;96595.78;5078748;28;20431;-74
2022/07/22 11:24:10;;;;;;;8.73;7.90;;;;;;;30.05;48.15;96582.06;5091228;28;20796;-74
2022/07/22 11:26:46;;;;;;;8.63;7.87;;;;;;;31.03;47.24;96607.78;5077296;28;20442;-74
2022/07/22 11:29:34;;;;;;;9.07;8.30;;;;;;;31.10;45.99;96605.47;5060836;28;20462;-74
2022/07/22 11:32:03;;;;;;;9.20;7.93;;;;;;;30.79;46.92;96575.59;5074928;28;20456;-75
2022/07/22 11:34:30;;;;;;;7.43;6.83;;;;;;;29.72;48.17;96577.03;5085851;28;20959;-73